createdAt,value
2023-04-18T00:00:43.210Z,16.20
2023-04-18T00:05:47.982Z,16.10
2023-04-18T00:10:49.541Z,18.20
2023-04-18T00:15:55.246Z,16.00
2023-04-18T00:20:57.014Z,17.40
2023-04-18T00:25:58.557Z,16.10
2023-04-18T00:31:00.401Z,15.30
2023-04-18T00:36:02.265Z,15.90
2023-04-18T00:41:03.825Z,16.60
2023-04-18T00:46:06.331Z,16.50
2023-04-18T00:51:10.083Z,18.30
2023-04-18T00:56:12.483Z,16.80
2023-04-18T01:01:14.140Z,16.10
2023-04-18T01:06:16.181Z,18.80
2023-04-18T01:11:17.680Z,16.60
2023-04-18T01:16:19.640Z,17.50
2023-04-18T01:21:21.907Z,17.90
2023-04-18T01:26:23.436Z,17.20
2023-04-18T01:31:25.027Z,17.20
2023-04-18T01:36:27.581Z,14.50
2023-04-18T01:41:32.571Z,17.30
2023-04-18T01:46:34.652Z,17.90
2023-04-18T01:51:38.949Z,17.40
2023-04-18T01:56:40.513Z,18.70
2023-04-18T02:01:43.346Z,19.50
2023-04-18T02:06:44.958Z,19.00
2023-04-18T02:11:46.572Z,16.10
2023-04-18T02:16:48.106Z,16.70
2023-04-18T02:21:50.505Z,16.70
2023-04-18T02:26:52.028Z,16.80
2023-04-18T02:31:53.528Z,16.30
2023-04-18T02:36:55.025Z,19.10
2023-04-18T02:41:56.596Z,16.90
2023-04-18T02:46:58.230Z,18.90
2023-04-18T02:51:59.731Z,15.90
2023-04-18T02:57:01.381Z,17.30
2023-04-18T03:02:03.392Z,17.60
2023-04-18T03:07:04.935Z,16.60
2023-04-18T03:12:07.076Z,18.20
2023-04-18T03:17:09.047Z,18.20
2023-04-18T03:22:10.688Z,15.50
2023-04-18T03:27:13.431Z,15.40
2023-04-18T03:32:15.023Z,17.00
2023-04-18T03:37:16.629Z,15.50
2023-04-18T03:42:18.146Z,16.10
2023-04-18T03:47:20.049Z,16.80
2023-04-18T03:52:21.913Z,20.30
2023-04-18T03:57:23.445Z,18.70
2023-04-18T04:02:25.189Z,16.60
2023-04-18T04:07:27.095Z,16.80
2023-04-18T04:12:28.894Z,19.00
2023-04-18T04:17:30.440Z,20.10
2023-04-18T04:22:33.080Z,19.30
2023-04-18T04:27:36.871Z,18.50
2023-04-18T04:32:39.075Z,16.90
2023-04-18T04:37:41.316Z,17.70
2023-04-18T04:42:43.007Z,18.50
2023-04-18T04:47:44.860Z,18.70
2023-04-18T04:52:46.407Z,19.00
2023-04-18T04:57:47.971Z,18.20
2023-04-18T05:02:49.966Z,18.60
2023-04-18T05:07:51.780Z,17.80
2023-04-18T05:12:53.296Z,15.10
2023-04-18T05:17:55.063Z,16.40
2023-04-18T05:22:56.716Z,16.90
2023-04-18T05:28:00.858Z,15.40
2023-04-18T05:33:02.421Z,15.40
2023-04-18T05:38:04.229Z,15.70
2023-04-18T05:43:05.781Z,18.90
2023-04-18T05:48:07.380Z,15.60
2023-04-18T05:53:08.973Z,15.20
2023-04-18T05:58:10.821Z,16.50
2023-04-18T06:03:12.505Z,16.10
2023-04-18T06:08:14.251Z,14.60
2023-04-18T06:13:15.756Z,14.50
2023-04-18T06:18:17.702Z,15.20
2023-04-18T06:23:19.176Z,16.10
2023-04-18T06:28:21.090Z,16.00
2023-04-18T06:33:23.050Z,16.10
2023-04-18T06:38:24.585Z,16.60
2023-04-18T06:43:26.313Z,15.00
2023-04-18T06:48:27.998Z,15.70
2023-04-18T06:53:29.716Z,14.90
2023-04-18T06:58:31.217Z,16.20
2023-04-18T07:03:32.803Z,15.50
2023-04-18T07:08:35.631Z,18.40
2023-04-18T07:13:37.100Z,16.20
2023-04-18T07:18:38.762Z,15.30
2023-04-18T07:23:40.551Z,15.10
2023-04-18T07:28:42.286Z,15.00
2023-04-18T07:33:43.891Z,16.40
2023-04-18T07:38:46.382Z,15.20
2023-04-18T07:43:47.873Z,17.70
2023-04-18T07:48:49.856Z,15.20
2023-04-18T07:53:51.603Z,17.10
2023-04-18T07:58:53.568Z,16.30
2023-04-18T08:03:56.674Z,16.80
2023-04-18T08:08:59.474Z,15.90
2023-04-18T08:14:01.574Z,17.20
2023-04-18T08:19:03.465Z,15.90
2023-04-18T08:24:05.929Z,18.90
2023-04-18T08:29:08.420Z,17.00
2023-04-18T08:34:09.909Z,16.40
2023-04-18T08:39:11.994Z,18.00
2023-04-18T08:44:14.270Z,16.70
2023-04-18T08:49:17.615Z,16.20
2023-04-18T08:54:20.943Z,15.10
2023-04-18T08:59:22.444Z,16.80
2023-04-18T09:04:36.582Z,16.20
2023-04-18T09:09:54.329Z,14.50
2023-04-18T09:15:11.548Z,15.60
2023-04-18T09:20:15.939Z,15.20
2023-04-18T09:25:36.024Z,16.70
2023-04-18T09:30:40.303Z,15.30
2023-04-18T09:35:42.625Z,12.20
2023-04-18T09:40:44.171Z,15.00
2023-04-18T09:45:48.948Z,12.20
2023-04-18T09:50:50.874Z,13.20
2023-04-18T09:55:55.586Z,12.00
2023-04-18T10:00:59.318Z,11.60
2023-04-18T10:06:01.087Z,12.20
2023-04-18T10:11:02.618Z,11.20
2023-04-18T10:16:05.028Z,10.40
2023-04-18T10:21:09.728Z,10.40
2023-04-18T10:26:11.674Z,12.10
2023-04-18T10:31:13.237Z,10.00
2023-04-18T10:36:19.190Z,6.20
2023-04-18T10:41:27.620Z,7.70
2023-04-18T10:46:32.299Z,5.70
2023-04-18T10:51:34.721Z,7.40
2023-04-18T10:56:36.987Z,7.90
2023-04-18T11:01:45.538Z,7.40
2023-04-18T11:06:53.187Z,8.70
2023-04-18T11:12:06.626Z,7.40
2023-04-18T11:17:23.842Z,8.70
2023-04-18T11:22:25.966Z,8.30
2023-04-18T11:27:29.704Z,8.90
2023-04-18T11:32:33.872Z,8.80
2023-04-18T11:37:37.651Z,8.10
2023-04-18T11:42:40.763Z,8.70
2023-04-18T11:47:46.490Z,7.90
2023-04-18T11:52:51.266Z,9.70
2023-04-18T11:57:57.306Z,9.20
2023-04-18T12:03:00.549Z,7.60
2023-04-18T12:08:13.294Z,9.50
2023-04-18T12:13:15.319Z,7.80
2023-04-18T12:18:19.954Z,7.80
2023-04-18T12:23:48.675Z,9.60
2023-04-18T12:28:51.523Z,7.80
2023-04-18T12:33:53.004Z,8.00
2023-04-18T12:38:54.520Z,9.40
2023-04-18T12:43:56.017Z,10.10
2023-04-18T12:48:58.136Z,11.60
2023-04-18T12:53:59.652Z,8.80
2023-04-18T12:59:01.421Z,12.10
2023-04-18T13:04:11.658Z,10.90
2023-04-18T13:09:14.889Z,12.20
2023-04-18T13:14:16.525Z,13.40
2023-04-18T13:19:18.044Z,11.70
2023-04-18T13:24:19.674Z,11.40
2023-04-18T13:29:21.178Z,9.90
2023-04-18T13:34:22.683Z,9.40
2023-04-18T13:39:24.899Z,10.40
2023-04-18T13:44:26.876Z,9.40
2023-04-18T13:49:28.771Z,9.10
2023-04-18T13:54:31.898Z,10.60
2023-04-18T13:59:33.844Z,9.90
2023-04-18T14:04:35.971Z,10.80
2023-04-18T14:09:37.701Z,9.90
2023-04-18T14:14:39.413Z,12.30
2023-04-18T14:19:43.990Z,11.00
2023-04-18T14:24:45.485Z,16.00
2023-04-18T14:29:48.916Z,11.10
2023-04-18T14:34:50.735Z,10.40
2023-04-18T14:39:52.247Z,9.10
2023-04-18T14:44:54.456Z,8.00
2023-04-18T14:49:56.419Z,10.30
2023-04-18T14:54:57.914Z,8.80
2023-04-18T14:59:59.484Z,7.80
2023-04-18T15:05:01.195Z,9.00
2023-04-18T15:10:02.813Z,9.90
2023-04-18T15:15:04.898Z,11.30
2023-04-18T15:20:07.699Z,11.30
2023-04-18T15:25:09.828Z,9.00
2023-04-18T15:30:12.748Z,9.00
2023-04-18T15:35:14.505Z,9.50
2023-04-18T15:40:18.857Z,8.50
2023-04-18T15:45:21.901Z,8.70
2023-04-18T15:50:24.316Z,8.70
2023-04-18T15:55:25.945Z,10.20
2023-04-18T16:00:27.667Z,9.10
2023-04-18T16:05:29.586Z,9.60
2023-04-18T16:10:31.147Z,8.90
2023-04-18T16:15:35.566Z,8.90
2023-04-18T16:20:37.264Z,11.10
2023-04-18T16:25:38.853Z,12.60
2023-04-18T16:30:43.824Z,10.40
2023-04-18T16:35:45.462Z,12.30
2023-04-18T16:40:47.058Z,12.20
2023-04-18T16:45:48.942Z,25.50
2023-04-18T16:50:50.850Z,10.20
2023-04-18T16:55:53.327Z,10.50
2023-04-18T17:00:54.837Z,10.10
2023-04-18T17:05:56.357Z,8.90
2023-04-18T17:10:59.470Z,9.70
2023-04-18T17:16:01.376Z,8.00
2023-04-18T17:21:03.443Z,10.50
2023-04-18T17:26:04.975Z,16.70
2023-04-18T17:31:07.872Z,15.50
2023-04-18T17:36:09.566Z,11.50
2023-04-18T17:41:11.081Z,13.30
2023-04-18T17:46:13.956Z,18.70
2023-04-18T17:51:19.423Z,22.10
2023-04-18T17:56:22.327Z,23.30
2023-04-18T18:01:24.918Z,25.80
2023-04-18T18:06:27.911Z,25.90
2023-04-18T18:11:29.486Z,33.90
2023-04-18T18:16:31.209Z,44.50
2023-04-18T18:21:33.551Z,44.30
2023-04-18T18:26:36.352Z,31.40
2023-04-18T18:31:38.990Z,27.50
2023-04-18T18:36:40.654Z,21.80
2023-04-18T18:41:42.502Z,17.30
2023-04-18T18:46:44.070Z,19.40
2023-04-18T18:51:45.924Z,19.10
2023-04-18T18:56:47.481Z,19.90
2023-04-18T19:01:49.061Z,19.30
2023-04-18T19:06:50.770Z,17.20
2023-04-18T19:11:52.286Z,14.60
2023-04-18T19:16:55.868Z,12.60
2023-04-18T19:21:57.969Z,13.00
2023-04-18T19:26:59.917Z,12.80
2023-04-18T19:32:01.943Z,13.10
2023-04-18T19:37:03.788Z,12.70
2023-04-18T19:42:06.124Z,13.80
2023-04-18T19:47:07.823Z,14.00
2023-04-18T19:52:09.341Z,13.60
2023-04-18T19:57:10.994Z,12.50
2023-04-18T20:02:12.678Z,13.60
2023-04-18T20:07:14.234Z,15.50
2023-04-18T20:12:15.790Z,13.00
2023-04-18T20:17:17.887Z,12.90
2023-04-18T20:22:19.968Z,12.50
2023-04-18T20:27:21.646Z,12.30
2023-04-18T20:32:25.692Z,10.90
2023-04-18T20:37:28.051Z,11.40
2023-04-18T20:42:29.791Z,14.40
2023-04-18T20:47:33.584Z,11.40
2023-04-18T20:52:35.675Z,10.60
2023-04-18T20:57:37.190Z,12.60
2023-04-18T21:02:39.351Z,12.90
2023-04-18T21:07:41.108Z,11.50
2023-04-18T21:12:42.857Z,13.00
2023-04-18T21:17:44.777Z,11.50
2023-04-18T21:22:46.716Z,10.20
2023-04-18T21:27:50.780Z,9.90
2023-04-18T21:32:52.561Z,10.20
2023-04-18T21:37:54.200Z,11.20
2023-04-18T21:42:55.712Z,9.40
2023-04-18T21:47:57.310Z,10.50
2023-04-18T21:52:59.169Z,10.10
2023-04-18T21:58:01.081Z,7.40
2023-04-18T22:03:03.350Z,9.40
2023-04-18T22:08:05.637Z,8.10
2023-04-18T22:13:07.136Z,8.10
2023-04-18T22:18:09.105Z,7.80
2023-04-18T22:23:12.074Z,7.80
2023-04-18T22:28:13.641Z,7.20
2023-04-18T22:33:15.574Z,9.30
2023-04-18T22:38:17.801Z,7.80
2023-04-18T22:43:23.101Z,8.80
2023-04-18T22:48:24.881Z,10.40
2023-04-18T22:53:26.446Z,11.50
2023-04-18T22:58:28.033Z,7.40
2023-04-18T23:03:31.869Z,9.10
2023-04-18T23:08:33.768Z,6.70
2023-04-18T23:13:35.257Z,7.60
2023-04-18T23:18:37.153Z,9.40
2023-04-18T23:23:38.670Z,8.60
2023-04-18T23:28:41.720Z,9.50
2023-04-18T23:33:45.278Z,9.80
2023-04-18T23:38:46.964Z,7.80
2023-04-18T23:43:49.041Z,8.50
2023-04-18T23:48:51.050Z,6.90
2023-04-18T23:53:52.545Z,8.70
2023-04-18T23:58:54.094Z,8.20
